sensor_id;sensor_type;location;lat;lon;timestamp;P1;durP1;ratioP1;P2;durP2;ratioP2
9597;SDS011;4837;50.890;4.724;2022-08-21T00:01:29;5.57;;;3.03;;
9597;SDS011;4837;50.890;4.724;2022-08-21T00:03:56;4.20;;;2.90;;
9597;SDS011;4837;50.890;4.724;2022-08-21T00:06:22;4.10;;;3.40;;
9597;SDS011;4837;50.890;4.724;2022-08-21T00:08:49;4.90;;;3.53;;
9597;SDS011;4837;50.890;4.724;2022-08-21T00:11:15;6.53;;;3.42;;
9597;SDS011;4837;50.890;4.724;2022-08-21T00:13:42;5.68;;;3.40;;
9597;SDS011;4837;50.890;4.724;2022-08-21T00:16:08;7.78;;;3.47;;
9597;SDS011;4837;50.890;4.724;2022-08-21T00:18:34;5.80;;;3.15;;
9597;SDS011;4837;50.890;4.724;2022-08-21T00:21:01;5.45;;;3.22;;
9597;SDS011;4837;50.890;4.724;2022-08-21T00:23:27;5.47;;;2.85;;
9597;SDS011;4837;50.890;4.724;2022-08-21T00:25:53;6.22;;;3.50;;
9597;SDS011;4837;50.890;4.724;2022-08-21T00:28:19;5.70;;;3.30;;
9597;SDS011;4837;50.890;4.724;2022-08-21T00:30:45;6.13;;;2.88;;
9597;SDS011;4837;50.890;4.724;2022-08-21T00:33:12;6.78;;;3.80;;
9597;SDS011;4837;50.890;4.724;2022-08-21T00:35:38;4.88;;;3.17;;
9597;SDS011;4837;50.890;4.724;2022-08-21T00:38:05;6.90;;;3.83;;
9597;SDS011;4837;50.890;4.724;2022-08-21T00:40:44;5.20;;;3.05;;
9597;SDS011;4837;50.890;4.724;2022-08-21T00:43:12;5.95;;;3.53;;
9597;SDS011;4837;50.890;4.724;2022-08-21T00:45:39;5.78;;;3.05;;
9597;SDS011;4837;50.890;4.724;2022-08-21T00:48:05;3.92;;;3.22;;
9597;SDS011;4837;50.890;4.724;2022-08-21T00:50:32;5.72;;;3.50;;
9597;SDS011;4837;50.890;4.724;2022-08-21T00:52:59;5.57;;;3.15;;
9597;SDS011;4837;50.890;4.724;2022-08-21T00:55:26;5.85;;;3.20;;
9597;SDS011;4837;50.890;4.724;2022-08-21T00:57:54;7.35;;;3.28;;
9597;SDS011;4837;50.890;4.724;2022-08-21T01:00:22;7.40;;;3.30;;
9597;SDS011;4837;50.890;4.724;2022-08-21T01:02:49;8.68;;;3.70;;
9597;SDS011;4837;50.890;4.724;2022-08-21T01:05:15;4.20;;;3.08;;
9597;SDS011;4837;50.890;4.724;2022-08-21T01:07:42;5.88;;;3.25;;
9597;SDS011;4837;50.890;4.724;2022-08-21T01:10:09;6.55;;;3.10;;
9597;SDS011;4837;50.890;4.724;2022-08-21T01:12:36;6.00;;;3.08;;
9597;SDS011;4837;50.890;4.724;2022-08-21T01:15:03;7.53;;;3.50;;
9597;SDS011;4837;50.890;4.724;2022-08-21T01:17:29;4.95;;;3.40;;
9597;SDS011;4837;50.890;4.724;2022-08-21T01:20:00;5.25;;;3.30;;
9597;SDS011;4837;50.890;4.724;2022-08-21T01:22:27;7.50;;;3.92;;
9597;SDS011;4837;50.890;4.724;2022-08-21T01:24:53;6.90;;;3.72;;
9597;SDS011;4837;50.890;4.724;2022-08-21T01:27:19;3.92;;;3.25;;
9597;SDS011;4837;50.890;4.724;2022-08-21T01:29:56;8.23;;;3.70;;
9597;SDS011;4837;50.890;4.724;2022-08-21T01:32:22;4.90;;;3.33;;
9597;SDS011;4837;50.890;4.724;2022-08-21T01:34:50;7.43;;;3.25;;
9597;SDS011;4837;50.890;4.724;2022-08-21T01:37:17;8.57;;;3.20;;
9597;SDS011;4837;50.890;4.724;2022-08-21T01:39:43;5.05;;;3.30;;
9597;SDS011;4837;50.890;4.724;2022-08-21T01:42:09;8.20;;;3.60;;
9597;SDS011;4837;50.890;4.724;2022-08-21T01:44:36;5.85;;;3.30;;
9597;SDS011;4837;50.890;4.724;2022-08-21T01:47:03;6.65;;;2.85;;
9597;SDS011;4837;50.890;4.724;2022-08-21T01:49:29;5.53;;;2.90;;
9597;SDS011;4837;50.890;4.724;2022-08-21T01:51:55;6.10;;;3.30;;
9597;SDS011;4837;50.890;4.724;2022-08-21T01:54:21;5.78;;;3.25;;
9597;SDS011;4837;50.890;4.724;2022-08-21T01:56:49;6.15;;;3.13;;
9597;SDS011;4837;50.890;4.724;2022-08-21T01:59:16;5.65;;;3.50;;
9597;SDS011;4837;50.890;4.724;2022-08-21T02:01:42;6.90;;;3.05;;
9597;SDS011;4837;50.890;4.724;2022-08-21T02:04:09;6.93;;;3.05;;
9597;SDS011;4837;50.890;4.724;2022-08-21T02:06:35;6.35;;;3.47;;
9597;SDS011;4837;50.890;4.724;2022-08-21T02:09:03;4.72;;;3.05;;
9597;SDS011;4837;50.890;4.724;2022-08-21T02:11:29;6.18;;;3.72;;
9597;SDS011;4837;50.890;4.724;2022-08-21T02:13:55;6.45;;;3.00;;
9597;SDS011;4837;50.890;4.724;2022-08-21T02:16:21;8.18;;;3.00;;
9597;SDS011;4837;50.890;4.724;2022-08-21T02:18:47;6.32;;;3.38;;
9597;SDS011;4837;50.890;4.724;2022-08-21T02:21:13;6.93;;;3.30;;
9597;SDS011;4837;50.890;4.724;2022-08-21T02:23:39;8.23;;;3.50;;
9597;SDS011;4837;50.890;4.724;2022-08-21T02:26:06;4.70;;;3.25;;
9597;SDS011;4837;50.890;4.724;2022-08-21T02:28:33;5.43;;;3.28;;
9597;SDS011;4837;50.890;4.724;2022-08-21T02:30:59;7.28;;;3.30;;
9597;SDS011;4837;50.890;4.724;2022-08-21T02:33:26;6.43;;;3.33;;
9597;SDS011;4837;50.890;4.724;2022-08-21T02:35:52;5.63;;;3.35;;
9597;SDS011;4837;50.890;4.724;2022-08-21T02:38:20;5.72;;;3.30;;
9597;SDS011;4837;50.890;4.724;2022-08-21T02:40:47;5.18;;;3.47;;
9597;SDS011;4837;50.890;4.724;2022-08-21T02:43:14;4.35;;;3.10;;
9597;SDS011;4837;50.890;4.724;2022-08-21T02:45:40;7.28;;;2.78;;
9597;SDS011;4837;50.890;4.724;2022-08-21T02:48:08;6.57;;;2.72;;
9597;SDS011;4837;50.890;4.724;2022-08-21T02:50:46;4.57;;;3.13;;
9597;SDS011;4837;50.890;4.724;2022-08-21T02:53:13;5.35;;;3.10;;
9597;SDS011;4837;50.890;4.724;2022-08-21T02:55:41;8.65;;;3.33;;
9597;SDS011;4837;50.890;4.724;2022-08-21T02:58:08;4.47;;;2.92;;
9597;SDS011;4837;50.890;4.724;2022-08-21T03:00:34;6.38;;;3.00;;
9597;SDS011;4837;50.890;4.724;2022-08-21T03:03:02;8.43;;;2.97;;
9597;SDS011;4837;50.890;4.724;2022-08-21T03:05:29;6.97;;;3.42;;
9597;SDS011;4837;50.890;4.724;2022-08-21T03:07:59;5.50;;;2.85;;
9597;SDS011;4837;50.890;4.724;2022-08-21T03:10:25;7.68;;;2.88;;
9597;SDS011;4837;50.890;4.724;2022-08-21T03:12:52;6.78;;;3.10;;
9597;SDS011;4837;50.890;4.724;2022-08-21T03:15:20;7.13;;;3.20;;
9597;SDS011;4837;50.890;4.724;2022-08-21T03:17:46;6.63;;;3.25;;
9597;SDS011;4837;50.890;4.724;2022-08-21T03:20:13;6.57;;;3.00;;
9597;SDS011;4837;50.890;4.724;2022-08-21T03:22:40;6.95;;;3.05;;
9597;SDS011;4837;50.890;4.724;2022-08-21T03:25:06;6.63;;;3.00;;
9597;SDS011;4837;50.890;4.724;2022-08-21T03:27:33;7.05;;;3.20;;
9597;SDS011;4837;50.890;4.724;2022-08-21T03:29:59;7.63;;;2.78;;
9597;SDS011;4837;50.890;4.724;2022-08-21T03:32:25;6.90;;;2.72;;
9597;SDS011;4837;50.890;4.724;2022-08-21T03:34:52;4.20;;;2.60;;
9597;SDS011;4837;50.890;4.724;2022-08-21T03:37:18;6.03;;;3.35;;
9597;SDS011;4837;50.890;4.724;2022-08-21T03:39:44;7.22;;;2.90;;
9597;SDS011;4837;50.890;4.724;2022-08-21T03:42:10;8.02;;;3.13;;
9597;SDS011;4837;50.890;4.724;2022-08-21T03:44:37;8.95;;;2.80;;
9597;SDS011;4837;50.890;4.724;2022-08-21T03:47:04;7.28;;;2.83;;
9597;SDS011;4837;50.890;4.724;2022-08-21T03:49:31;5.85;;;2.80;;
9597;SDS011;4837;50.890;4.724;2022-08-21T03:51:57;6.00;;;2.70;;
9597;SDS011;4837;50.890;4.724;2022-08-21T03:54:23;7.53;;;3.22;;
9597;SDS011;4837;50.890;4.724;2022-08-21T03:56:50;6.60;;;3.00;;
9597;SDS011;4837;50.890;4.724;2022-08-21T03:59:16;4.28;;;2.90;;
9597;SDS011;4837;50.890;4.724;2022-08-21T04:01:53;4.70;;;2.65;;
9597;SDS011;4837;50.890;4.724;2022-08-21T04:04:19;6.70;;;3.08;;
9597;SDS011;4837;50.890;4.724;2022-08-21T04:06:45;4.85;;;2.85;;
9597;SDS011;4837;50.890;4.724;2022-08-21T04:09:11;6.40;;;2.80;;
9597;SDS011;4837;50.890;4.724;2022-08-21T04:11:37;7.80;;;2.80;;
9597;SDS011;4837;50.890;4.724;2022-08-21T04:14:03;6.53;;;2.72;;
9597;SDS011;4837;50.890;4.724;2022-08-21T04:16:29;7.57;;;2.70;;
9597;SDS011;4837;50.890;4.724;2022-08-21T05:31:58;8.95;;;3.13;;
9597;SDS011;4837;50.890;4.724;2022-08-21T05:34:24;9.02;;;2.92;;
9597;SDS011;4837;50.890;4.724;2022-08-21T05:36:50;5.38;;;2.45;;
9597;SDS011;4837;50.890;4.724;2022-08-21T05:39:16;4.85;;;2.80;;
9597;SDS011;4837;50.890;4.724;2022-08-21T05:41:42;7.38;;;3.08;;
9597;SDS011;4837;50.890;4.724;2022-08-21T05:44:08;9.02;;;3.00;;
9597;SDS011;4837;50.890;4.724;2022-08-21T05:46:34;7.32;;;2.70;;
9597;SDS011;4837;50.890;4.724;2022-08-21T05:49:00;4.38;;;2.50;;
9597;SDS011;4837;50.890;4.724;2022-08-21T05:51:26;10.10;;;2.83;;
9597;SDS011;4837;50.890;4.724;2022-08-21T05:53:53;8.13;;;2.78;;
9597;SDS011;4837;50.890;4.724;2022-08-21T05:56:19;7.05;;;2.55;;
9597;SDS011;4837;50.890;4.724;2022-08-21T05:58:45;4.72;;;2.60;;
9597;SDS011;4837;50.890;4.724;2022-08-21T06:01:11;7.20;;;2.50;;
9597;SDS011;4837;50.890;4.724;2022-08-21T06:03:40;9.85;;;2.83;;
9597;SDS011;4837;50.890;4.724;2022-08-21T06:06:06;5.07;;;2.75;;
9597;SDS011;4837;50.890;4.724;2022-08-21T06:08:33;8.68;;;2.83;;
9597;SDS011;4837;50.890;4.724;2022-08-21T06:11:00;6.90;;;2.90;;
9597;SDS011;4837;50.890;4.724;2022-08-21T06:13:27;8.57;;;3.13;;
9597;SDS011;4837;50.890;4.724;2022-08-21T06:16:07;8.48;;;2.75;;
9597;SDS011;4837;50.890;4.724;2022-08-21T06:18:34;8.10;;;2.70;;
9597;SDS011;4837;50.890;4.724;2022-08-21T06:21:00;6.35;;;2.75;;
9597;SDS011;4837;50.890;4.724;2022-08-21T06:23:26;4.75;;;2.20;;
9597;SDS011;4837;50.890;4.724;2022-08-21T06:25:53;6.32;;;2.33;;
9597;SDS011;4837;50.890;4.724;2022-08-21T06:28:19;5.30;;;2.20;;
9597;SDS011;4837;50.890;4.724;2022-08-21T06:30:45;4.30;;;2.15;;
9597;SDS011;4837;50.890;4.724;2022-08-21T06:33:11;6.07;;;2.47;;
9597;SDS011;4837;50.890;4.724;2022-08-21T06:35:37;4.97;;;2.10;;
9597;SDS011;4837;50.890;4.724;2022-08-21T06:38:03;3.30;;;2.03;;
9597;SDS011;4837;50.890;4.724;2022-08-21T06:40:29;5.55;;;2.10;;
9597;SDS011;4837;50.890;4.724;2022-08-21T07:29:10;8.73;;;2.35;;
9597;SDS011;4837;50.890;4.724;2022-08-21T07:31:36;7.47;;;2.20;;
9597;SDS011;4837;50.890;4.724;2022-08-21T07:34:03;6.80;;;1.80;;
9597;SDS011;4837;50.890;4.724;2022-08-21T07:36:29;3.50;;;1.80;;
9597;SDS011;4837;50.890;4.724;2022-08-21T07:38:55;4.50;;;1.77;;
9597;SDS011;4837;50.890;4.724;2022-08-21T07:58:23;3.90;;;1.90;;
9597;SDS011;4837;50.890;4.724;2022-08-21T08:00:49;8.98;;;1.88;;
9597;SDS011;4837;50.890;4.724;2022-08-21T08:03:16;4.90;;;1.77;;
9597;SDS011;4837;50.890;4.724;2022-08-21T08:05:42;3.65;;;1.58;;
9597;SDS011;4837;50.890;4.724;2022-08-21T08:08:08;5.32;;;1.90;;
9597;SDS011;4837;50.890;4.724;2022-08-21T08:10:34;5.20;;;1.75;;
9597;SDS011;4837;50.890;4.724;2022-08-21T08:13:01;4.78;;;1.80;;
9597;SDS011;4837;50.890;4.724;2022-08-21T08:15:27;4.78;;;1.50;;
9597;SDS011;4837;50.890;4.724;2022-08-21T08:17:54;4.82;;;1.75;;
9597;SDS011;4837;50.890;4.724;2022-08-21T08:20:21;5.00;;;1.98;;
9597;SDS011;4837;50.890;4.724;2022-08-21T08:22:48;6.90;;;1.75;;
9597;SDS011;4837;50.890;4.724;2022-08-21T08:25:15;4.53;;;1.55;;
9597;SDS011;4837;50.890;4.724;2022-08-21T08:27:42;3.72;;;1.75;;
9597;SDS011;4837;50.890;4.724;2022-08-21T08:30:09;5.60;;;1.48;;
9597;SDS011;4837;50.890;4.724;2022-08-21T08:32:35;5.75;;;1.65;;
9597;SDS011;4837;50.890;4.724;2022-08-21T08:35:02;5.82;;;1.67;;
9597;SDS011;4837;50.890;4.724;2022-08-21T08:37:28;4.63;;;1.80;;
9597;SDS011;4837;50.890;4.724;2022-08-21T08:39:54;5.57;;;1.70;;
9597;SDS011;4837;50.890;4.724;2022-08-21T08:42:24;5.80;;;1.60;;
9597;SDS011;4837;50.890;4.724;2022-08-21T08:44:54;4.65;;;1.60;;
9597;SDS011;4837;50.890;4.724;2022-08-21T08:47:21;4.57;;;1.42;;
9597;SDS011;4837;50.890;4.724;2022-08-21T08:50:05;6.78;;;1.77;;
9597;SDS011;4837;50.890;4.724;2022-08-21T08:52:36;5.72;;;1.60;;
9597;SDS011;4837;50.890;4.724;2022-08-21T08:55:07;4.45;;;1.70;;
9597;SDS011;4837;50.890;4.724;2022-08-21T08:57:35;5.75;;;1.80;;
9597;SDS011;4837;50.890;4.724;2022-08-21T09:00:05;5.03;;;1.58;;
9597;SDS011;4837;50.890;4.724;2022-08-21T09:02:33;5.95;;;1.80;;
9597;SDS011;4837;50.890;4.724;2022-08-21T09:04:59;4.72;;;1.85;;
9597;SDS011;4837;50.890;4.724;2022-08-21T09:10:20;5.28;;;1.80;;
9597;SDS011;4837;50.890;4.724;2022-08-21T09:15:32;7.40;;;1.73;;
9597;SDS011;4837;50.890;4.724;2022-08-21T09:23:17;8.82;;;4.75;;
9597;SDS011;4837;50.890;4.724;2022-08-21T09:28:11;5.05;;;1.73;;
9597;SDS011;4837;50.890;4.724;2022-08-21T09:30:39;5.53;;;1.70;;
9597;SDS011;4837;50.890;4.724;2022-08-21T09:33:06;6.38;;;1.83;;
9597;SDS011;4837;50.890;4.724;2022-08-21T09:35:32;4.03;;;1.50;;
9597;SDS011;4837;50.890;4.724;2022-08-21T09:38:04;4.65;;;1.58;;
9597;SDS011;4837;50.890;4.724;2022-08-21T09:40:36;4.93;;;1.55;;
9597;SDS011;4837;50.890;4.724;2022-08-21T09:43:04;5.03;;;1.67;;
9597;SDS011;4837;50.890;4.724;2022-08-21T09:45:30;5.90;;;1.70;;
9597;SDS011;4837;50.890;4.724;2022-08-21T09:48:07;5.50;;;1.80;;
9597;SDS011;4837;50.890;4.724;2022-08-21T09:50:33;6.85;;;2.05;;
9597;SDS011;4837;50.890;4.724;2022-08-21T09:52:59;4.00;;;1.80;;
9597;SDS011;4837;50.890;4.724;2022-08-21T09:55:39;5.95;;;1.77;;
9597;SDS011;4837;50.890;4.724;2022-08-21T09:58:32;5.45;;;1.92;;
9597;SDS011;4837;50.890;4.724;2022-08-21T10:01:00;5.80;;;1.90;;
9597;SDS011;4837;50.890;4.724;2022-08-21T10:03:27;6.40;;;1.60;;
